Archival Weather

Chicago O'Hare International

Chicago, Illinois (KORD)

Report from: Monday, December 12, 2022 8:51 PM CST
Current time: Friday, June 21, 2024 3:05 AM CDT

Current weather – Weather history – Daily summaries
Weather forecast

Temperature3.3°C (37.9°F)
Wind chill-0.9°C (30.5°F)
Dew point-2.8°C (27.0°F)
Winds 10 kts (5.1 m/s, 11.5 mph) East-Southeast (110°)
Visibility10 mi. (16.1 km)
Clouds Ceiling: Overcast 2,700 ft. (823 m)
Altimeter30.28 in.Hg (1025 mB)
Relative humidity64 %
Density altitude-1,774 ft. (-541 m)
Sea-level pressure102.6 kPa (1026 mB, 30.30 in.Hg)
Remarks Automated weather observing station with precipitation discriminator
Pressure rising, then falling
Flight conditions Marginal Visual Meteorological Conditions
Raw dataKORD 130251Z 11010KT 10SM OVC027 03/M03 A3028 RMK AO2 SLP260 T00331028 50004
An error has occurred. This application may no longer respond until reloaded. Reload 🗙